sensor_id;sensor_type;location;lat;lon;timestamp;temperature;humidity
19483;DHT22;9882;51.166;6.992;2023-02-18T00:02:11;10.90;99.90
19483;DHT22;9882;51.166;6.992;2023-02-18T00:04:41;10.90;99.90
19483;DHT22;9882;51.166;6.992;2023-02-18T00:07:15;10.90;99.90
19483;DHT22;9882;51.166;6.992;2023-02-18T00:09:45;10.80;99.90
19483;DHT22;9882;51.166;6.992;2023-02-18T00:12:20;10.90;99.90
19483;DHT22;9882;51.166;6.992;2023-02-18T00:14:53;10.80;99.90
19483;DHT22;9882;51.166;6.992;2023-02-18T00:17:27;10.80;99.90
19483;DHT22;9882;51.166;6.992;2023-02-18T00:19:58;10.80;99.90
19483;DHT22;9882;51.166;6.992;2023-02-18T00:22:28;10.90;99.90
19483;DHT22;9882;51.166;6.992;2023-02-18T00:24:57;10.90;99.90
19483;DHT22;9882;51.166;6.992;2023-02-18T00:27:27;11.00;99.90
19483;DHT22;9882;51.166;6.992;2023-02-18T00:30:01;10.80;99.90
19483;DHT22;9882;51.166;6.992;2023-02-18T00:32:43;11.00;99.90
19483;DHT22;9882;51.166;6.992;2023-02-18T00:35:16;10.90;99.90
19483;DHT22;9882;51.166;6.992;2023-02-18T00:37:50;10.90;99.90
19483;DHT22;9882;51.166;6.992;2023-02-18T00:40:20;10.90;99.90
19483;DHT22;9882;51.166;6.992;2023-02-18T00:43:09;10.80;99.90
19483;DHT22;9882;51.166;6.992;2023-02-18T00:45:41;10.90;99.90
19483;DHT22;9882;51.166;6.992;2023-02-18T00:48:29;10.90;99.90
19483;DHT22;9882;51.166;6.992;2023-02-18T00:51:10;10.90;99.90
19483;DHT22;9882;51.166;6.992;2023-02-18T00:53:40;10.90;99.90
19483;DHT22;9882;51.166;6.992;2023-02-18T00:56:09;10.90;99.90
19483;DHT22;9882;51.166;6.992;2023-02-18T00:58:42;10.90;99.90
19483;DHT22;9882;51.166;6.992;2023-02-18T01:01:30;10.90;99.90
19483;DHT22;9882;51.166;6.992;2023-02-18T01:04:01;10.90;99.90
19483;DHT22;9882;51.166;6.992;2023-02-18T01:06:31;10.80;99.90
19483;DHT22;9882;51.166;6.992;2023-02-18T01:09:02;10.80;99.90
19483;DHT22;9882;51.166;6.992;2023-02-18T01:11:35;10.80;99.90
19483;DHT22;9882;51.166;6.992;2023-02-18T01:14:05;10.80;99.90
19483;DHT22;9882;51.166;6.992;2023-02-18T01:16:35;10.80;99.90
19483;DHT22;9882;51.166;6.992;2023-02-18T01:19:09;10.80;99.90
19483;DHT22;9882;51.166;6.992;2023-02-18T01:21:41;10.80;99.90
19483;DHT22;9882;51.166;6.992;2023-02-18T01:24:11;10.80;99.90
19483;DHT22;9882;51.166;6.992;2023-02-18T01:26:42;10.80;99.90
19483;DHT22;9882;51.166;6.992;2023-02-18T01:29:11;10.80;99.90
19483;DHT22;9882;51.166;6.992;2023-02-18T01:31:40;10.90;99.90
19483;DHT22;9882;51.166;6.992;2023-02-18T01:34:12;10.80;99.90
19483;DHT22;9882;51.166;6.992;2023-02-18T01:36:41;10.90;99.90
19483;DHT22;9882;51.166;6.992;2023-02-18T01:39:10;10.80;99.90
19483;DHT22;9882;51.166;6.992;2023-02-18T01:41:39;10.80;99.90
19483;DHT22;9882;51.166;6.992;2023-02-18T01:44:14;10.80;99.90
19483;DHT22;9882;51.166;6.992;2023-02-18T01:46:45;10.90;99.90
19483;DHT22;9882;51.166;6.992;2023-02-18T01:49:19;10.80;99.90
19483;DHT22;9882;51.166;6.992;2023-02-18T01:51:56;10.80;99.90
19483;DHT22;9882;51.166;6.992;2023-02-18T01:54:32;10.80;99.90
19483;DHT22;9882;51.166;6.992;2023-02-18T01:57:05;10.80;99.90
19483;DHT22;9882;51.166;6.992;2023-02-18T01:59:37;10.80;99.90
19483;DHT22;9882;51.166;6.992;2023-02-18T02:02:10;10.80;99.90
19483;DHT22;9882;51.166;6.992;2023-02-18T02:04:45;10.80;99.90
19483;DHT22;9882;51.166;6.992;2023-02-18T02:07:15;10.80;99.90
19483;DHT22;9882;51.166;6.992;2023-02-18T02:09:46;10.80;99.90
19483;DHT22;9882;51.166;6.992;2023-02-18T02:12:33;10.80;99.90
19483;DHT22;9882;51.166;6.992;2023-02-18T02:18:09;10.70;99.90
19483;DHT22;9882;51.166;6.992;2023-02-18T02:24:07;10.80;99.90
19483;DHT22;9882;51.166;6.992;2023-02-18T02:27:02;10.70;99.90
19483;DHT22;9882;51.166;6.992;2023-02-18T02:29:50;10.70;99.90
19483;DHT22;9882;51.166;6.992;2023-02-18T02:32:57;10.60;99.90
19483;DHT22;9882;51.166;6.992;2023-02-18T02:35:31;10.60;99.90
19483;DHT22;9882;51.166;6.992;2023-02-18T02:38:04;10.50;99.90
19483;DHT22;9882;51.166;6.992;2023-02-18T02:40:39;10.60;99.90
19483;DHT22;9882;51.166;6.992;2023-02-18T02:43:17;10.50;99.90
19483;DHT22;9882;51.166;6.992;2023-02-18T02:45:53;10.50;99.90
19483;DHT22;9882;51.166;6.992;2023-02-18T02:48:34;10.60;99.90
19483;DHT22;9882;51.166;6.992;2023-02-18T02:51:11;10.40;99.90
19483;DHT22;9882;51.166;6.992;2023-02-18T02:53:42;10.50;99.90
19483;DHT22;9882;51.166;6.992;2023-02-18T02:56:14;10.50;99.90
19483;DHT22;9882;51.166;6.992;2023-02-18T02:58:46;10.40;99.90
19483;DHT22;9882;51.166;6.992;2023-02-18T03:01:29;10.40;99.90
19483;DHT22;9882;51.166;6.992;2023-02-18T03:04:17;10.30;99.90
19483;DHT22;9882;51.166;6.992;2023-02-18T03:07:13;10.30;99.90
19483;DHT22;9882;51.166;6.992;2023-02-18T03:10:06;10.40;99.90
19483;DHT22;9882;51.166;6.992;2023-02-18T03:12:42;10.50;99.90
19483;DHT22;9882;51.166;6.992;2023-02-18T03:15:20;10.50;99.90
19483;DHT22;9882;51.166;6.992;2023-02-18T03:17:56;10.50;99.90
19483;DHT22;9882;51.166;6.992;2023-02-18T03:20:32;10.40;99.90
19483;DHT22;9882;51.166;6.992;2023-02-18T03:23:07;10.40;99.90
19483;DHT22;9882;51.166;6.992;2023-02-18T03:25:39;10.40;99.90
19483;DHT22;9882;51.166;6.992;2023-02-18T03:28:12;10.40;99.90
19483;DHT22;9882;51.166;6.992;2023-02-18T03:30:46;10.50;99.90
19483;DHT22;9882;51.166;6.992;2023-02-18T03:33:19;10.50;99.90
19483;DHT22;9882;51.166;6.992;2023-02-18T03:35:53;10.50;99.90
19483;DHT22;9882;51.166;6.992;2023-02-18T03:38:28;10.50;99.90
19483;DHT22;9882;51.166;6.992;2023-02-18T03:41:03;10.50;99.90
19483;DHT22;9882;51.166;6.992;2023-02-18T03:43:35;10.50;99.90
19483;DHT22;9882;51.166;6.992;2023-02-18T03:46:04;10.40;99.90
19483;DHT22;9882;51.166;6.992;2023-02-18T03:48:33;10.40;99.90
19483;DHT22;9882;51.166;6.992;2023-02-18T03:51:02;10.40;99.90
19483;DHT22;9882;51.166;6.992;2023-02-18T03:53:33;10.40;99.90
19483;DHT22;9882;51.166;6.992;2023-02-18T03:56:02;10.40;99.90
19483;DHT22;9882;51.166;6.992;2023-02-18T03:58:31;10.40;99.90
19483;DHT22;9882;51.166;6.992;2023-02-18T04:01:00;10.40;99.90
19483;DHT22;9882;51.166;6.992;2023-02-18T04:03:29;10.30;99.90
19483;DHT22;9882;51.166;6.992;2023-02-18T04:05:58;10.30;99.90
19483;DHT22;9882;51.166;6.992;2023-02-18T04:08:30;10.30;99.90
19483;DHT22;9882;51.166;6.992;2023-02-18T04:11:01;10.30;99.90
19483;DHT22;9882;51.166;6.992;2023-02-18T04:13:30;10.30;99.90
19483;DHT22;9882;51.166;6.992;2023-02-18T04:16:03;10.20;99.90
19483;DHT22;9882;51.166;6.992;2023-02-18T04:18:35;10.30;99.90
19483;DHT22;9882;51.166;6.992;2023-02-18T04:21:04;10.20;99.90
19483;DHT22;9882;51.166;6.992;2023-02-18T04:23:33;10.30;99.90
19483;DHT22;9882;51.166;6.992;2023-02-18T04:26:06;10.30;99.90
19483;DHT22;9882;51.166;6.992;2023-02-18T04:28:59;10.30;99.90
19483;DHT22;9882;51.166;6.992;2023-02-18T04:31:36;10.30;99.90
19483;DHT22;9882;51.166;6.992;2023-02-18T04:34:42;10.20;99.90
19483;DHT22;9882;51.166;6.992;2023-02-18T04:37:11;10.20;99.90
19483;DHT22;9882;51.166;6.992;2023-02-18T04:39:42;10.10;99.90
19483;DHT22;9882;51.166;6.992;2023-02-18T04:42:15;10.30;99.90
19483;DHT22;9882;51.166;6.992;2023-02-18T04:44:43;10.20;99.90
19483;DHT22;9882;51.166;6.992;2023-02-18T04:47:14;10.20;99.90
19483;DHT22;9882;51.166;6.992;2023-02-18T04:49:42;10.40;99.90
19483;DHT22;9882;51.166;6.992;2023-02-18T04:52:13;10.20;99.90
19483;DHT22;9882;51.166;6.992;2023-02-18T04:54:43;10.20;99.90
19483;DHT22;9882;51.166;6.992;2023-02-18T04:57:11;10.10;99.90
19483;DHT22;9882;51.166;6.992;2023-02-18T04:59:42;10.20;99.90
19483;DHT22;9882;51.166;6.992;2023-02-18T05:02:10;10.20;99.90
19483;DHT22;9882;51.166;6.992;2023-02-18T05:04:39;10.20;99.90
19483;DHT22;9882;51.166;6.992;2023-02-18T05:07:08;10.10;99.90
19483;DHT22;9882;51.166;6.992;2023-02-18T05:09:36;10.00;99.90
19483;DHT22;9882;51.166;6.992;2023-02-18T05:12:05;10.20;99.90
19483;DHT22;9882;51.166;6.992;2023-02-18T05:14:34;10.10;99.90
19483;DHT22;9882;51.166;6.992;2023-02-18T05:17:04;10.10;99.90
19483;DHT22;9882;51.166;6.992;2023-02-18T05:19:33;10.10;99.90
19483;DHT22;9882;51.166;6.992;2023-02-18T05:22:01;10.10;99.90
19483;DHT22;9882;51.166;6.992;2023-02-18T05:24:30;10.10;99.90
19483;DHT22;9882;51.166;6.992;2023-02-18T05:27:00;10.30;99.90
19483;DHT22;9882;51.166;6.992;2023-02-18T05:29:29;10.10;99.90
19483;DHT22;9882;51.166;6.992;2023-02-18T05:31:57;10.10;99.90
19483;DHT22;9882;51.166;6.992;2023-02-18T05:34:29;10.10;99.90
19483;DHT22;9882;51.166;6.992;2023-02-18T05:36:58;10.10;99.90
19483;DHT22;9882;51.166;6.992;2023-02-18T05:39:32;10.20;99.90
19483;DHT22;9882;51.166;6.992;2023-02-18T05:42:01;10.10;99.90
19483;DHT22;9882;51.166;6.992;2023-02-18T05:44:29;10.10;99.90
19483;DHT22;9882;51.166;6.992;2023-02-18T05:47:00;10.10;99.90
19483;DHT22;9882;51.166;6.992;2023-02-18T05:49:33;10.20;99.90
19483;DHT22;9882;51.166;6.992;2023-02-18T05:52:05;10.00;99.90
19483;DHT22;9882;51.166;6.992;2023-02-18T05:54:35;10.00;99.90
19483;DHT22;9882;51.166;6.992;2023-02-18T05:57:04;10.00;99.90
19483;DHT22;9882;51.166;6.992;2023-02-18T05:59:36;10.00;99.90
19483;DHT22;9882;51.166;6.992;2023-02-18T06:02:05;10.00;99.90
19483;DHT22;9882;51.166;6.992;2023-02-18T06:04:35;10.00;99.90
19483;DHT22;9882;51.166;6.992;2023-02-18T06:07:03;9.90;99.90
19483;DHT22;9882;51.166;6.992;2023-02-18T06:09:32;10.00;99.90
19483;DHT22;9882;51.166;6.992;2023-02-18T06:12:01;10.00;99.90
19483;DHT22;9882;51.166;6.992;2023-02-18T06:14:29;9.90;99.90
19483;DHT22;9882;51.166;6.992;2023-02-18T06:16:58;9.90;99.90
19483;DHT22;9882;51.166;6.992;2023-02-18T06:19:26;10.00;99.90
19483;DHT22;9882;51.166;6.992;2023-02-18T06:21:56;9.90;99.90
19483;DHT22;9882;51.166;6.992;2023-02-18T06:24:25;10.00;99.90
19483;DHT22;9882;51.166;6.992;2023-02-18T06:26:53;9.90;99.90
19483;DHT22;9882;51.166;6.992;2023-02-18T06:29:22;10.00;99.90
19483;DHT22;9882;51.166;6.992;2023-02-18T06:31:51;9.90;99.90
19483;DHT22;9882;51.166;6.992;2023-02-18T06:34:19;9.90;99.90
19483;DHT22;9882;51.166;6.992;2023-02-18T06:36:48;10.00;99.90
19483;DHT22;9882;51.166;6.992;2023-02-18T06:39:18;9.90;99.90
19483;DHT22;9882;51.166;6.992;2023-02-18T06:41:46;10.10;99.90
19483;DHT22;9882;51.166;6.992;2023-02-18T06:44:15;9.90;99.90
19483;DHT22;9882;51.166;6.992;2023-02-18T06:46:44;9.90;99.90
19483;DHT22;9882;51.166;6.992;2023-02-18T06:49:12;9.90;99.90
19483;DHT22;9882;51.166;6.992;2023-02-18T06:51:41;9.90;99.90
19483;DHT22;9882;51.166;6.992;2023-02-18T06:54:09;10.00;99.90
19483;DHT22;9882;51.166;6.992;2023-02-18T06:56:39;10.00;99.90
19483;DHT22;9882;51.166;6.992;2023-02-18T06:59:07;10.00;99.90
19483;DHT22;9882;51.166;6.992;2023-02-18T07:01:36;10.00;99.90
19483;DHT22;9882;51.166;6.992;2023-02-18T07:04:04;10.00;99.90
19483;DHT22;9882;51.166;6.992;2023-02-18T07:06:33;10.00;99.90
19483;DHT22;9882;51.166;6.992;2023-02-18T07:09:01;10.00;99.90
19483;DHT22;9882;51.166;6.992;2023-02-18T07:11:30;10.10;99.90
19483;DHT22;9882;51.166;6.992;2023-02-18T07:14:00;10.00;99.90
19483;DHT22;9882;51.166;6.992;2023-02-18T07:16:28;10.00;99.90
19483;DHT22;9882;51.166;6.992;2023-02-18T07:18:57;10.10;99.90
19483;DHT22;9882;51.166;6.992;2023-02-18T07:21:26;10.00;99.90
19483;DHT22;9882;51.166;6.992;2023-02-18T07:23:54;10.10;99.90
19483;DHT22;9882;51.166;6.992;2023-02-18T07:26:22;10.10;99.90
19483;DHT22;9882;51.166;6.992;2023-02-18T07:28:51;10.10;99.90
19483;DHT22;9882;51.166;6.992;2023-02-18T07:31:21;10.10;99.90
19483;DHT22;9882;51.166;6.992;2023-02-18T07:33:49;10.10;99.90
19483;DHT22;9882;51.166;6.992;2023-02-18T07:36:18;10.10;99.90
19483;DHT22;9882;51.166;6.992;2023-02-18T07:38:46;10.10;99.90
19483;DHT22;9882;51.166;6.992;2023-02-18T07:41:17;10.10;99.90
19483;DHT22;9882;51.166;6.992;2023-02-18T07:43:46;10.20;99.90
19483;DHT22;9882;51.166;6.992;2023-02-18T07:46:15;10.20;99.90
19483;DHT22;9882;51.166;6.992;2023-02-18T07:48:45;10.20;99.90
19483;DHT22;9882;51.166;6.992;2023-02-18T07:51:14;10.10;99.90
19483;DHT22;9882;51.166;6.992;2023-02-18T07:53:43;10.20;99.90
19483;DHT22;9882;51.166;6.992;2023-02-18T07:56:11;10.20;99.90
19483;DHT22;9882;51.166;6.992;2023-02-18T07:58:40;10.10;99.90
19483;DHT22;9882;51.166;6.992;2023-02-18T08:01:10;10.20;99.90
19483;DHT22;9882;51.166;6.992;2023-02-18T08:03:40;10.10;99.90
19483;DHT22;9882;51.166;6.992;2023-02-18T08:06:20;10.00;99.90
19483;DHT22;9882;51.166;6.992;2023-02-18T08:08:49;9.80;99.90
19483;DHT22;9882;51.166;6.992;2023-02-18T08:11:17;9.80;99.90
19483;DHT22;9882;51.166;6.992;2023-02-18T08:13:48;10.00;99.90
19483;DHT22;9882;51.166;6.992;2023-02-18T08:16:18;9.80;99.90
19483;DHT22;9882;51.166;6.992;2023-02-18T08:18:47;9.80;99.90
19483;DHT22;9882;51.166;6.992;2023-02-18T08:21:19;9.80;99.90
19483;DHT22;9882;51.166;6.992;2023-02-18T08:23:48;9.90;99.90
19483;DHT22;9882;51.166;6.992;2023-02-18T08:26:20;9.80;99.90
19483;DHT22;9882;51.166;6.992;2023-02-18T08:28:49;9.80;99.90
19483;DHT22;9882;51.166;6.992;2023-02-18T08:31:20;9.70;99.90
19483;DHT22;9882;51.166;6.992;2023-02-18T08:33:49;9.70;99.90
19483;DHT22;9882;51.166;6.992;2023-02-18T08:36:19;9.70;99.90
19483;DHT22;9882;51.166;6.992;2023-02-18T08:38:48;9.70;99.90
19483;DHT22;9882;51.166;6.992;2023-02-18T08:41:16;9.70;99.90
19483;DHT22;9882;51.166;6.992;2023-02-18T08:43:46;9.80;99.90
19483;DHT22;9882;51.166;6.992;2023-02-18T08:46:16;9.50;99.90
19483;DHT22;9882;51.166;6.992;2023-02-18T08:48:48;9.60;99.90
19483;DHT22;9882;51.166;6.992;2023-02-18T08:51:21;9.60;99.90
19483;DHT22;9882;51.166;6.992;2023-02-18T08:53:49;9.50;99.90
19483;DHT22;9882;51.166;6.992;2023-02-18T08:56:37;9.60;99.90
19483;DHT22;9882;51.166;6.992;2023-02-18T08:59:06;9.60;99.90
19483;DHT22;9882;51.166;6.992;2023-02-18T09:01:50;9.60;99.90
19483;DHT22;9882;51.166;6.992;2023-02-18T09:04:18;9.50;99.90
19483;DHT22;9882;51.166;6.992;2023-02-18T09:07:04;9.50;99.90
19483;DHT22;9882;51.166;6.992;2023-02-18T09:09:33;9.50;99.90
19483;DHT22;9882;51.166;6.992;2023-02-18T09:12:28;9.60;99.90
19483;DHT22;9882;51.166;6.992;2023-02-18T09:15:04;9.50;99.90
19483;DHT22;9882;51.166;6.992;2023-02-18T09:17:39;9.50;99.90
19483;DHT22;9882;51.166;6.992;2023-02-18T09:20:28;9.60;99.90
19483;DHT22;9882;51.166;6.992;2023-02-18T09:23:24;9.60;99.90
19483;DHT22;9882;51.166;6.992;2023-02-18T09:26:19;9.60;99.90
19483;DHT22;9882;51.166;6.992;2023-02-18T09:28:55;9.60;99.90
19483;DHT22;9882;51.166;6.992;2023-02-18T09:31:27;9.60;99.90
19483;DHT22;9882;51.166;6.992;2023-02-18T09:33:58;9.70;99.90
19483;DHT22;9882;51.166;6.992;2023-02-18T09:36:37;9.70;99.90
19483;DHT22;9882;51.166;6.992;2023-02-18T09:39:09;9.60;99.90
19483;DHT22;9882;51.166;6.992;2023-02-18T09:41:42;9.80;99.90
19483;DHT22;9882;51.166;6.992;2023-02-18T09:44:17;9.70;99.90
19483;DHT22;9882;51.166;6.992;2023-02-18T09:46:59;9.70;99.90
19483;DHT22;9882;51.166;6.992;2023-02-18T09:49:37;9.70;99.90
19483;DHT22;9882;51.166;6.992;2023-02-18T09:52:16;9.70;99.90
19483;DHT22;9882;51.166;6.992;2023-02-18T09:54:51;9.80;99.90
19483;DHT22;9882;51.166;6.992;2023-02-18T09:57:25;9.90;99.90
19483;DHT22;9882;51.166;6.992;2023-02-18T09:59:58;9.80;99.90
19483;DHT22;9882;51.166;6.992;2023-02-18T10:02:52;9.80;99.90
19483;DHT22;9882;51.166;6.992;2023-02-18T10:05:27;9.80;99.90
19483;DHT22;9882;51.166;6.992;2023-02-18T10:08:02;9.90;99.90
19483;DHT22;9882;51.166;6.992;2023-02-18T10:10:37;9.80;99.90
19483;DHT22;9882;51.166;6.992;2023-02-18T10:13:11;10.00;99.90
19483;DHT22;9882;51.166;6.992;2023-02-18T10:15:42;9.80;99.90
19483;DHT22;9882;51.166;6.992;2023-02-18T10:18:25;9.80;99.90
19483;DHT22;9882;51.166;6.992;2023-02-18T10:21:04;9.80;99.90
19483;DHT22;9882;51.166;6.992;2023-02-18T10:23:37;9.80;99.90
19483;DHT22;9882;51.166;6.992;2023-02-18T10:26:11;9.80;99.90
19483;DHT22;9882;51.166;6.992;2023-02-18T10:28:41;9.80;99.90
19483;DHT22;9882;51.166;6.992;2023-02-18T10:31:16;9.80;99.90
19483;DHT22;9882;51.166;6.992;2023-02-18T10:33:50;9.80;99.90
19483;DHT22;9882;51.166;6.992;2023-02-18T10:36:24;9.80;99.90
19483;DHT22;9882;51.166;6.992;2023-02-18T10:39:28;9.90;99.90
19483;DHT22;9882;51.166;6.992;2023-02-18T10:42:10;9.90;99.90
19483;DHT22;9882;51.166;6.992;2023-02-18T10:44:50;9.90;99.90
19483;DHT22;9882;51.166;6.992;2023-02-18T10:47:36;9.90;99.90
19483;DHT22;9882;51.166;6.992;2023-02-18T10:50:40;9.80;99.90
19483;DHT22;9882;51.166;6.992;2023-02-18T10:53:35;9.80;99.90
19483;DHT22;9882;51.166;6.992;2023-02-18T10:56:07;9.50;99.90
19483;DHT22;9882;51.166;6.992;2023-02-18T10:58:42;9.50;99.90
19483;DHT22;9882;51.166;6.992;2023-02-18T11:01:16;9.50;99.90
19483;DHT22;9882;51.166;6.992;2023-02-18T11:03:50;9.60;99.90
19483;DHT22;9882;51.166;6.992;2023-02-18T11:06:24;9.50;99.90
19483;DHT22;9882;51.166;6.992;2023-02-18T11:09:18;9.50;99.90
19483;DHT22;9882;51.166;6.992;2023-02-18T11:11:59;9.50;99.90
19483;DHT22;9882;51.166;6.992;2023-02-18T11:14:43;9.20;99.90
19483;DHT22;9882;51.166;6.992;2023-02-18T11:17:20;9.30;99.90
19483;DHT22;9882;51.166;6.992;2023-02-18T11:19:54;9.30;99.90
19483;DHT22;9882;51.166;6.992;2023-02-18T11:22:29;9.30;99.90
19483;DHT22;9882;51.166;6.992;2023-02-18T11:25:01;9.40;99.90
19483;DHT22;9882;51.166;6.992;2023-02-18T11:27:34;9.30;99.90
19483;DHT22;9882;51.166;6.992;2023-02-18T11:30:19;9.30;99.90
19483;DHT22;9882;51.166;6.992;2023-02-18T11:32:59;9.30;99.90
19483;DHT22;9882;51.166;6.992;2023-02-18T11:35:31;9.40;99.90
19483;DHT22;9882;51.166;6.992;2023-02-18T11:38:21;9.40;99.90
19483;DHT22;9882;51.166;6.992;2023-02-18T11:41:07;9.30;99.90
19483;DHT22;9882;51.166;6.992;2023-02-18T11:43:50;9.20;99.90
19483;DHT22;9882;51.166;6.992;2023-02-18T11:46:23;9.30;99.90
19483;DHT22;9882;51.166;6.992;2023-02-18T11:49:21;9.50;99.90
19483;DHT22;9882;51.166;6.992;2023-02-18T11:51:52;9.20;99.90
19483;DHT22;9882;51.166;6.992;2023-02-18T11:54:24;9.40;99.90
19483;DHT22;9882;51.166;6.992;2023-02-18T11:57:11;9.30;99.90
19483;DHT22;9882;51.166;6.992;2023-02-18T11:59:59;9.30;99.90
19483;DHT22;9882;51.166;6.992;2023-02-18T12:02:40;9.20;99.90
19483;DHT22;9882;51.166;6.992;2023-02-18T12:05:16;9.30;99.90
19483;DHT22;9882;51.166;6.992;2023-02-18T12:07:55;9.30;99.90
19483;DHT22;9882;51.166;6.992;2023-02-18T12:10:30;9.30;99.90
19483;DHT22;9882;51.166;6.992;2023-02-18T12:13:02;9.30;99.90
19483;DHT22;9882;51.166;6.992;2023-02-18T12:15:47;9.30;99.90
19483;DHT22;9882;51.166;6.992;2023-02-18T12:21:36;9.30;99.90
19483;DHT22;9882;51.166;6.992;2023-02-18T12:24:21;9.30;99.90
19483;DHT22;9882;51.166;6.992;2023-02-18T12:27:04;9.30;99.90
19483;DHT22;9882;51.166;6.992;2023-02-18T12:29:55;9.40;99.90
19483;DHT22;9882;51.166;6.992;2023-02-18T12:32:43;9.30;99.90
19483;DHT22;9882;51.166;6.992;2023-02-18T12:35:36;9.40;99.90
19483;DHT22;9882;51.166;6.992;2023-02-18T12:38:22;9.30;99.90
19483;DHT22;9882;51.166;6.992;2023-02-18T12:41:16;9.30;99.90
19483;DHT22;9882;51.166;6.992;2023-02-18T12:43:59;9.30;99.90
19483;DHT22;9882;51.166;6.992;2023-02-18T12:46:50;9.50;99.90
19483;DHT22;9882;51.166;6.992;2023-02-18T12:52:23;9.40;99.90
19483;DHT22;9882;51.166;6.992;2023-02-18T12:55:25;9.40;99.90
19483;DHT22;9882;51.166;6.992;2023-02-18T12:58:04;9.60;99.90
19483;DHT22;9882;51.166;6.992;2023-02-18T13:00:48;9.40;99.90
19483;DHT22;9882;51.166;6.992;2023-02-18T13:03:30;9.40;99.90
19483;DHT22;9882;51.166;6.992;2023-02-18T13:06:11;9.40;99.90
19483;DHT22;9882;51.166;6.992;2023-02-18T13:08:52;9.50;99.90
19483;DHT22;9882;51.166;6.992;2023-02-18T13:11:44;9.40;99.90
19483;DHT22;9882;51.166;6.992;2023-02-18T13:14:20;9.50;99.90
19483;DHT22;9882;51.166;6.992;2023-02-18T13:16:52;9.50;99.90
19483;DHT22;9882;51.166;6.992;2023-02-18T13:19:25;9.50;99.90
19483;DHT22;9882;51.166;6.992;2023-02-18T13:21:57;9.50;99.90
19483;DHT22;9882;51.166;6.992;2023-02-18T13:24:32;9.40;99.90
19483;DHT22;9882;51.166;6.992;2023-02-18T13:27:15;9.50;99.90
19483;DHT22;9882;51.166;6.992;2023-02-18T13:29:51;9.50;99.90
19483;DHT22;9882;51.166;6.992;2023-02-18T13:32:28;9.40;99.90
19483;DHT22;9882;51.166;6.992;2023-02-18T13:35:06;9.60;99.90
19483;DHT22;9882;51.166;6.992;2023-02-18T13:37:46;9.50;99.90
19483;DHT22;9882;51.166;6.992;2023-02-18T13:40:24;9.50;99.90
19483;DHT22;9882;51.166;6.992;2023-02-18T13:43:19;9.60;99.90
19483;DHT22;9882;51.166;6.992;2023-02-18T13:46:03;9.50;99.90
19483;DHT22;9882;51.166;6.992;2023-02-18T13:48:37;9.50;99.90
19483;DHT22;9882;51.166;6.992;2023-02-18T13:51:07;9.50;99.90
19483;DHT22;9882;51.166;6.992;2023-02-18T13:53:37;9.50;99.90
19483;DHT22;9882;51.166;6.992;2023-02-18T13:56:19;9.60;99.90
19483;DHT22;9882;51.166;6.992;2023-02-18T13:58:50;9.60;99.90
19483;DHT22;9882;51.166;6.992;2023-02-18T14:01:39;9.50;99.90
19483;DHT22;9882;51.166;6.992;2023-02-18T14:04:46;9.50;99.90
19483;DHT22;9882;51.166;6.992;2023-02-18T14:07:28;9.50;99.90
19483;DHT22;9882;51.166;6.992;2023-02-18T14:09:58;9.50;99.90
19483;DHT22;9882;51.166;6.992;2023-02-18T14:12:39;9.50;99.90
19483;DHT22;9882;51.166;6.992;2023-02-18T14:21:22;9.50;99.90
19483;DHT22;9882;51.166;6.992;2023-02-18T14:24:03;9.50;99.90
19483;DHT22;9882;51.166;6.992;2023-02-18T14:26:36;9.60;99.90
19483;DHT22;9882;51.166;6.992;2023-02-18T14:29:12;9.60;99.90
19483;DHT22;9882;51.166;6.992;2023-02-18T14:31:45;9.60;99.90
19483;DHT22;9882;51.166;6.992;2023-02-18T14:38:05;9.60;99.90
19483;DHT22;9882;51.166;6.992;2023-02-18T14:41:01;9.70;99.90
19483;DHT22;9882;51.166;6.992;2023-02-18T14:46:50;9.70;99.90
19483;DHT22;9882;51.166;6.992;2023-02-18T14:49:34;9.60;99.90
19483;DHT22;9882;51.166;6.992;2023-02-18T14:52:05;9.60;99.90
19483;DHT22;9882;51.166;6.992;2023-02-18T14:54:39;9.80;99.90
19483;DHT22;9882;51.166;6.992;2023-02-18T14:57:12;9.70;99.90
19483;DHT22;9882;51.166;6.992;2023-02-18T14:59:47;9.60;99.90
19483;DHT22;9882;51.166;6.992;2023-02-18T15:02:20;9.60;99.90
19483;DHT22;9882;51.166;6.992;2023-02-18T15:04:48;9.70;99.90
19483;DHT22;9882;51.166;6.992;2023-02-18T15:07:18;9.70;99.90
19483;DHT22;9882;51.166;6.992;2023-02-18T15:09:53;9.80;99.90
19483;DHT22;9882;51.166;6.992;2023-02-18T15:12:29;9.90;99.90
19483;DHT22;9882;51.166;6.992;2023-02-18T15:15:02;9.60;99.90
19483;DHT22;9882;51.166;6.992;2023-02-18T15:20:47;9.70;99.90
19483;DHT22;9882;51.166;6.992;2023-02-18T15:23:49;9.70;99.90
19483;DHT22;9882;51.166;6.992;2023-02-18T15:26:25;9.70;99.90
19483;DHT22;9882;51.166;6.992;2023-02-18T15:28:58;9.70;99.90
19483;DHT22;9882;51.166;6.992;2023-02-18T15:34:35;9.80;99.90
19483;DHT22;9882;51.166;6.992;2023-02-18T15:37:10;9.70;99.90
19483;DHT22;9882;51.166;6.992;2023-02-18T15:39:41;9.70;99.90
19483;DHT22;9882;51.166;6.992;2023-02-18T15:42:16;9.70;99.90
19483;DHT22;9882;51.166;6.992;2023-02-18T15:44:48;9.80;99.90
19483;DHT22;9882;51.166;6.992;2023-02-18T15:47:18;9.70;99.90
19483;DHT22;9882;51.166;6.992;2023-02-18T15:49:50;9.70;99.90
19483;DHT22;9882;51.166;6.992;2023-02-18T15:52:24;9.80;99.90
19483;DHT22;9882;51.166;6.992;2023-02-18T15:54:54;9.70;99.90
19483;DHT22;9882;51.166;6.992;2023-02-18T15:57:27;9.80;99.90
19483;DHT22;9882;51.166;6.992;2023-02-18T16:00:02;9.80;99.90
19483;DHT22;9882;51.166;6.992;2023-02-18T16:02:33;9.70;99.90
19483;DHT22;9882;51.166;6.992;2023-02-18T16:05:02;9.70;99.90
19483;DHT22;9882;51.166;6.992;2023-02-18T16:07:47;9.70;99.90
19483;DHT22;9882;51.166;6.992;2023-02-18T16:10:19;9.80;99.90
19483;DHT22;9882;51.166;6.992;2023-02-18T16:12:50;9.80;99.90
19483;DHT22;9882;51.166;6.992;2023-02-18T16:15:24;9.70;99.90
19483;DHT22;9882;51.166;6.992;2023-02-18T16:17:53;9.90;99.90
19483;DHT22;9882;51.166;6.992;2023-02-18T16:20:28;9.80;99.90
19483;DHT22;9882;51.166;6.992;2023-02-18T16:23:01;9.80;99.90
19483;DHT22;9882;51.166;6.992;2023-02-18T16:25:40;9.90;99.90
19483;DHT22;9882;51.166;6.992;2023-02-18T16:28:13;9.90;99.90
19483;DHT22;9882;51.166;6.992;2023-02-18T16:30:43;9.80;99.90
19483;DHT22;9882;51.166;6.992;2023-02-18T16:33:12;9.80;99.90
19483;DHT22;9882;51.166;6.992;2023-02-18T16:35:42;9.80;99.90
19483;DHT22;9882;51.166;6.992;2023-02-18T16:38:19;9.80;99.90
19483;DHT22;9882;51.166;6.992;2023-02-18T16:40:48;9.80;99.90
19483;DHT22;9882;51.166;6.992;2023-02-18T16:43:18;9.90;99.90
19483;DHT22;9882;51.166;6.992;2023-02-18T16:45:48;9.90;99.90
19483;DHT22;9882;51.166;6.992;2023-02-18T16:48:22;9.90;99.90
19483;DHT22;9882;51.166;6.992;2023-02-18T16:50:52;9.90;99.90
19483;DHT22;9882;51.166;6.992;2023-02-18T16:53:21;9.90;99.90
19483;DHT22;9882;51.166;6.992;2023-02-18T16:55:50;9.90;99.90
19483;DHT22;9882;51.166;6.992;2023-02-18T16:58:19;9.90;99.90
19483;DHT22;9882;51.166;6.992;2023-02-18T17:00:48;9.90;99.90
19483;DHT22;9882;51.166;6.992;2023-02-18T17:03:19;9.90;99.90
19483;DHT22;9882;51.166;6.992;2023-02-18T17:05:47;9.90;99.90
19483;DHT22;9882;51.166;6.992;2023-02-18T17:08:18;9.90;99.90
19483;DHT22;9882;51.166;6.992;2023-02-18T17:10:52;9.90;99.90
19483;DHT22;9882;51.166;6.992;2023-02-18T17:13:22;9.90;99.90
19483;DHT22;9882;51.166;6.992;2023-02-18T17:15:52;9.90;99.90